createdAt,value
2023-04-28T00:00:02.532Z,3.3
2023-04-28T00:05:03.182Z,3.53
2023-04-28T00:10:02.808Z,3.55
2023-04-28T00:15:02.580Z,3.54
2023-04-28T00:20:02.372Z,3.39
2023-04-28T00:25:03.192Z,3.32
2023-04-28T00:30:02.924Z,3.54
2023-04-28T00:35:02.905Z,3.57
2023-04-28T00:40:03.077Z,3.35
2023-04-28T00:45:02.740Z,3.06
2023-04-28T00:50:02.421Z,3.11
2023-04-28T00:55:04.063Z,3.37
2023-04-28T01:00:02.981Z,3.38
2023-04-28T01:05:02.655Z,3.31
2023-04-28T01:10:02.456Z,3.22
2023-04-28T01:15:02.689Z,3.22
2023-04-28T01:20:02.408Z,3.2
2023-04-28T01:25:02.347Z,3.12
2023-04-28T01:30:02.386Z,2.97
2023-04-28T01:35:03.044Z,2.93
2023-04-28T01:40:02.760Z,3.46
2023-04-28T01:45:02.449Z,3.81
2023-04-28T01:50:02.850Z,3.86
2023-04-28T01:55:03.877Z,3.87
2023-04-28T02:00:02.632Z,3.83
2023-04-28T02:05:02.647Z,3.94
2023-04-28T02:10:02.454Z,4.13
2023-04-28T02:15:03.240Z,4.14
2023-04-28T02:20:02.937Z,4.08
2023-04-28T02:25:02.629Z,4.14
2023-04-28T02:30:02.510Z,4.17
2023-04-28T02:35:03.185Z,4.09
2023-04-28T02:40:02.902Z,3.83
2023-04-28T02:45:03.040Z,3.91
2023-04-28T02:50:02.808Z,4.13
2023-04-28T02:55:03.918Z,3.98
2023-04-28T03:00:02.509Z,4.18
2023-04-28T03:05:03.081Z,4.13
2023-04-28T03:10:02.706Z,4
2023-04-28T03:15:02.456Z,3.85
2023-04-28T03:20:02.205Z,3.75
2023-04-28T03:25:02.247Z,3.75
2023-04-28T03:30:03.048Z,3.89
2023-04-28T03:35:02.807Z,3.97
2023-04-28T03:40:03.066Z,4.07
2023-04-28T03:45:02.859Z,4.14
2023-04-28T03:50:02.497Z,4.06
2023-04-28T03:55:02.796Z,4.02
2023-04-28T04:00:02.977Z,4.02
2023-04-28T04:05:02.721Z,3.99
2023-04-28T04:10:04.319Z,3.98
2023-04-28T04:15:02.748Z,3.91
2023-04-28T04:20:02.486Z,3.61
2023-04-28T04:25:03.195Z,3.4
2023-04-28T04:30:02.998Z,3.42
2023-04-28T04:35:02.884Z,3.49
2023-04-28T04:40:02.579Z,3.58
2023-04-28T04:45:02.370Z,3.69
2023-04-28T04:50:03.106Z,3.7
2023-04-28T04:55:04.009Z,3.89
2023-04-28T05:00:02.883Z,4.07
2023-04-28T05:05:12.743Z,4.25
2023-04-28T05:10:02.844Z,4.71
2023-04-28T05:15:02.613Z,4.78
2023-04-28T05:20:02.466Z,4.8
2023-04-28T05:25:02.437Z,4.74
2023-04-28T05:30:03.184Z,4.9
2023-04-28T05:35:02.975Z,5.14
2023-04-28T05:40:02.819Z,5.28
2023-04-28T05:45:02.619Z,5.43
2023-04-28T05:50:02.403Z,5.6
2023-04-28T05:55:02.810Z,5.67
2023-04-28T06:00:02.982Z,6.03
2023-04-28T06:05:03.001Z,6.2
2023-04-28T06:10:02.584Z,6.55
2023-04-28T06:15:02.359Z,7.5
2023-04-28T06:20:02.300Z,7.63
2023-04-28T06:25:03.030Z,7.59
2023-04-28T06:30:02.791Z,8.01
2023-04-28T06:35:02.404Z,8.17
2023-04-28T06:40:03.100Z,8.54
2023-04-28T06:45:02.864Z,8.65
2023-04-28T06:50:02.540Z,8.51
2023-04-28T06:55:03.183Z,8.71
2023-04-28T07:00:03.048Z,8.53
2023-04-28T07:05:02.933Z,8.71
2023-04-28T07:10:02.792Z,9.54
2023-04-28T07:15:02.697Z,9.94
2023-04-28T07:20:02.687Z,10.38
2023-04-28T07:25:02.712Z,11.36
2023-04-28T07:30:09.013Z,11.31
2023-04-28T07:35:02.811Z,11.9
2023-04-28T07:40:02.524Z,11.17
2023-04-28T07:45:02.324Z,11.63
2023-04-28T07:50:02.968Z,11.52
2023-04-28T07:55:03.202Z,11.87
2023-04-28T08:00:02.686Z,12.26
2023-04-28T08:05:03.168Z,12.37
2023-04-28T08:10:03.118Z,13.03
2023-04-28T08:15:03.070Z,12.71
2023-04-28T08:20:02.865Z,12.78
2023-04-28T08:25:03.060Z,12.22
2023-04-28T08:30:02.852Z,12.15
2023-04-28T08:35:02.739Z,11.76
2023-04-28T08:40:02.603Z,11.71
2023-04-28T08:45:02.359Z,12.32
2023-04-28T08:50:03.158Z,12.82
2023-04-28T08:55:03.661Z,12.45
2023-04-28T09:00:02.823Z,12.39
2023-04-28T09:05:02.920Z,12.79
2023-04-28T09:10:02.412Z,13.02
2023-04-28T09:15:02.234Z,13.48
2023-04-28T09:20:02.604Z,14.34
2023-04-28T09:25:02.478Z,13.43
2023-04-28T09:30:03.211Z,14.6
2023-04-28T09:35:02.848Z,15.18
2023-04-28T09:40:02.717Z,14.6
2023-04-28T09:45:02.480Z,15
2023-04-28T09:50:03.168Z,15.25
2023-04-28T09:55:03.531Z,15.46
2023-04-28T10:00:02.666Z,14.96
2023-04-28T10:05:02.666Z,14.53
2023-04-28T10:10:02.176Z,14.75
2023-04-28T10:15:03.058Z,14.45
2023-04-28T10:20:02.253Z,14.42
2023-04-28T10:25:03.148Z,14.83
2023-04-28T10:30:08.278Z,14.53
2023-04-28T10:35:02.536Z,14.67
2023-04-28T10:40:02.338Z,14.17
2023-04-28T10:45:03.132Z,14.06
2023-04-28T10:50:02.872Z,13.69
2023-04-28T10:55:22.537Z,13.5
2023-04-28T11:00:02.398Z,13.58
2023-04-28T11:05:02.322Z,13.46
2023-04-28T11:10:03.035Z,13.42
2023-04-28T11:15:02.828Z,13.38
2023-04-28T11:20:02.636Z,13.44
2023-04-28T11:25:02.333Z,13.25
2023-04-28T11:30:02.339Z,12.9
2023-04-28T11:35:03.156Z,12.71
2023-04-28T11:40:02.729Z,12.79
2023-04-28T11:45:02.472Z,12.9
2023-04-28T11:50:02.300Z,13.02
2023-04-28T11:55:04.163Z,12.96
2023-04-28T12:00:02.852Z,12.58
2023-04-28T12:05:02.997Z,12.44
2023-04-28T12:10:02.672Z,12.47
2023-04-28T12:15:02.446Z,12.52
2023-04-28T12:20:03.151Z,12.58
2023-04-28T12:25:02.898Z,12.61
2023-04-28T12:30:02.709Z,12.64
2023-04-28T12:35:02.334Z,12.81
2023-04-28T12:40:03.108Z,12.92
2023-04-28T12:45:02.858Z,12.97
2023-04-28T12:50:02.483Z,13.23
2023-04-28T12:55:03.293Z,13.22
2023-04-28T13:00:03.061Z,13.38
2023-04-28T13:05:03.249Z,13.58
2023-04-28T13:10:02.762Z,13.75
2023-04-28T13:15:02.540Z,13.66
2023-04-28T13:20:02.210Z,13.51
2023-04-28T13:25:03.328Z,13.71
2023-04-28T13:30:03.108Z,13.94
2023-04-28T13:35:03.076Z,14.2
2023-04-28T13:40:02.971Z,13.95
2023-04-28T13:45:02.791Z,13.58
2023-04-28T13:50:02.588Z,13.31
2023-04-28T13:55:03.217Z,13.3
2023-04-28T14:00:02.477Z,13.39
2023-04-28T14:05:02.553Z,13.08
2023-04-28T14:10:02.275Z,12.71
2023-04-28T14:15:03.068Z,12.63
2023-04-28T14:20:02.297Z,12.63
2023-04-28T14:25:02.201Z,12.5
2023-04-28T14:30:02.976Z,12.47
2023-04-28T14:35:02.781Z,12.33
2023-04-28T14:40:02.687Z,12.5
2023-04-28T14:45:02.932Z,12.69
2023-04-28T14:50:02.798Z,12.68
2023-04-28T14:55:03.163Z,12.85
2023-04-28T15:00:02.477Z,12.88
2023-04-28T15:05:03.108Z,13.04
2023-04-28T15:10:02.951Z,13.07
2023-04-28T15:15:02.762Z,13.15
2023-04-28T15:20:02.746Z,13.15
2023-04-28T15:25:02.393Z,13.07
2023-04-28T15:30:02.314Z,12.93
2023-04-28T15:35:02.954Z,12.96
2023-04-28T15:40:02.693Z,12.9
2023-04-28T15:45:02.459Z,12.77
2023-04-28T15:50:02.156Z,12.7
2023-04-28T15:55:04.012Z,12.67
2023-04-28T16:00:02.955Z,12.64
2023-04-28T16:05:02.891Z,12.66
2023-04-28T16:10:02.849Z,12.57
2023-04-28T16:15:02.704Z,12.38
2023-04-28T16:20:02.575Z,12.24
2023-04-28T16:25:02.503Z,12.07
2023-04-28T16:30:02.742Z,11.85
2023-04-28T16:35:02.494Z,11.56
2023-04-28T16:45:03.072Z,11.29
2023-04-28T16:50:02.707Z,11.14
2023-04-28T16:55:03.603Z,10.99
2023-04-28T17:00:02.747Z,10.8
2023-04-28T17:10:02.915Z,10.73
2023-04-28T17:15:02.602Z,10.66
2023-04-28T17:20:02.314Z,10.62
2023-04-28T17:25:03.109Z,10.56
2023-04-28T17:30:02.917Z,10.57
2023-04-28T17:35:02.859Z,10.66
2023-04-28T17:40:02.413Z,10.78
2023-04-28T17:45:02.428Z,10.78
2023-04-28T17:50:02.643Z,10.75
2023-04-28T17:55:03.455Z,10.72
2023-04-28T18:00:02.448Z,10.65
2023-04-28T18:05:02.385Z,10.55
2023-04-28T18:10:02.416Z,10.46
2023-04-28T18:15:03.110Z,10.43
2023-04-28T18:20:02.882Z,10.44
2023-04-28T18:25:02.552Z,10.42
2023-04-28T18:30:02.443Z,10.44
2023-04-28T18:35:03.164Z,10.44
2023-04-28T18:40:03.053Z,10.4
2023-04-28T18:45:03.064Z,10.37
2023-04-28T18:50:02.688Z,10.44
2023-04-28T18:55:02.864Z,10.47
2023-04-28T19:00:02.291Z,10.49
2023-04-28T19:05:03.022Z,10.52
2023-04-28T19:10:02.752Z,10.49
2023-04-28T19:15:02.702Z,10.5
2023-04-28T19:20:02.648Z,10.43
2023-04-28T19:25:02.444Z,10.42
2023-04-28T19:30:03.222Z,10.38
2023-04-28T19:35:03.039Z,10.39
2023-04-28T19:40:02.918Z,10.39
2023-04-28T19:45:02.762Z,10.37
2023-04-28T19:50:02.631Z,10.35
2023-04-28T19:55:03.207Z,10.34
2023-04-28T20:00:03.211Z,10.35
2023-04-28T20:05:02.943Z,10.34
2023-04-28T20:10:02.682Z,10.33
2023-04-28T20:15:02.467Z,10.34
2023-04-28T20:20:03.151Z,10.33
2023-04-28T20:25:02.788Z,10.35
2023-04-28T20:30:02.549Z,10.36
2023-04-28T20:35:03.327Z,10.36
2023-04-28T20:40:03.021Z,10.4
2023-04-28T20:45:03.045Z,10.42
2023-04-28T20:50:02.804Z,10.45
2023-04-28T20:55:03.444Z,10.46
2023-04-28T21:00:02.436Z,10.48
2023-04-28T21:05:02.341Z,10.55
2023-04-28T21:10:03.060Z,10.53
2023-04-28T21:15:02.926Z,10.49
2023-04-28T21:20:02.818Z,10.45
2023-04-28T21:25:02.467Z,10.33
2023-04-28T21:30:02.367Z,10.36
2023-04-28T21:35:02.248Z,10.37
2023-04-28T21:40:03.064Z,10.31
2023-04-28T21:45:02.727Z,10.26
2023-04-28T21:50:02.565Z,10.24
2023-04-28T21:55:03.183Z,10.26
2023-04-28T22:00:03.100Z,10.24
2023-04-28T22:05:02.363Z,10.24
2023-04-28T22:10:02.225Z,10.21
2023-04-28T22:15:03.273Z,10.24
2023-04-28T22:20:02.965Z,10.18
2023-04-28T22:25:02.473Z,10.13
2023-04-28T22:30:02.514Z,10.2
2023-04-28T22:35:02.181Z,10.2
2023-04-28T22:40:02.934Z,10.22
2023-04-28T22:45:03.582Z,10
2023-04-28T22:50:02.612Z,9.8
2023-04-28T22:55:02.749Z,9.56
2023-04-28T23:00:02.992Z,9.38
2023-04-28T23:05:02.762Z,9.24
2023-04-28T23:10:02.517Z,9.29
2023-04-28T23:15:02.520Z,9.12
2023-04-28T23:20:02.302Z,8.88
2023-04-28T23:25:03.111Z,8.83
2023-04-28T23:30:02.935Z,8.92
2023-04-28T23:35:02.598Z,8.83
2023-04-28T23:40:02.276Z,8.68
2023-04-28T23:45:02.479Z,8.74
2023-04-28T23:50:02.271Z,8.75
2023-04-28T23:55:03.657Z,8.68
